Meteo Giornale » Osservazioni meteo Stati Uniti (USA) » Clinton
ore: 14:56 - Osservazioni Meteo Clinton
Lat. 41° 50' N Lon. 90° 20' W Alt. 216 metri s.l.m.
34 °C
Sereno
Temp. 24 Ore
22 °C
34 °C
Sud/Sud-Ovest
20.3 Km/h
Dew point 24 °C
Umidità 56 %
Visibilità 10 Km
Il sole sorge alle ore 06:27
Il sole tramonta alle ore 19:35
| Data e Ora | Cielo e Fenomeni | T °C | DP °C | Um. % | Pres. hPa | Vis. km | Vento km/h | |
|---|---|---|---|---|---|---|---|---|
| Oggi h: 14:56 | Sereno | 34 | 24 | 56 | 1014 | 10 | S/SO 20.3 | |
| Oggi h: 13:56 | Sereno | 34 | 24 | 56 | 1014 | 10 | SO 14.8 | |
| Oggi h: 12:56 | Sereno | 33 | 24 | 59 | 1015 | 10 | S/SO 14.8 | |
| Oggi h: 11:56 | Sereno | 32 | 26 | 70 | 1015 | 10 | S/SO 16.7 | |
| Oggi h: 10:56 | Sereno | 31 | 26 | 74 | 1015 | 10 | S/SO 9.3 | |
| Oggi h: 09:56 | Poco Nuvoloso | 28 | 25 | 83 | 1015 | 10 | SO 7.4 | |
| Oggi h: 08:56 | Sereno | 26 | 24 | 88 | 1015 | 10 | SO 9.3 | |
| Oggi h: 07:56 | Foschia | 24 | 23 | 94 | 1015 | 10 | N 5.5 | |
| Oggi h: 06:56 | Foschia | 23 | 22 | 94 | 1015 | 6 | SO 7.4 | |
| Oggi h: 05:56 | Sereno | 23 | 22 | 94 | 1014 | 11 | N 5.5 | |
| Oggi h: 04:56 | Sereno | 22 | 22 | 100 | 1014 | 14 | N 5.5 | |
| Oggi h: 03:56 | Sereno | 24 | 23 | 94 | 1014 | 10 | N 5.5 | |
| Oggi h: 02:56 | Sereno | 24 | 23 | 94 | 1014 | 10 | O/NO 7.4 | |
| Oggi h: 01:56 | Poco Nuvoloso | 24 | 23 | 94 | 1014 | 10 | O/SO 7.4 | |
| Oggi h: 00:56 | Sereno | 24 | 24 | 100 | 1014 | 10 | SO 9.3 | |
| Ieri h: 23:56 | Poco Nuvoloso | 25 | 24 | 94 | 1014 | 10 | N 5.5 | |
| Ieri h: 22:56 | Sereno | 24 | 23 | 94 | 1014 | 10 | N 0 | |
| Ieri h: 21:56 | Sereno | 25 | 23 | 88 | 1014 | 10 | N 5.5 | |
| Ieri h: 20:56 | Sereno | 26 | 23 | 83 | 1014 | 10 | N 5.5 | |
| Ieri h: 19:56 | Sereno | 27 | 24 | 83 | 1013 | 10 | S 9.3 | |
| Ieri h: 18:56 | Sereno | 29 | 24 | 74 | 1013 | 10 | SO 9.3 | |
| Ieri h: 17:56 | Sereno | 30 | 23 | 66 | 1012 | 10 | S/SO 16.7 | |
| Ieri h: 16:56 | Poco Nuvoloso | 31 | 24 | 66 | 1012 | 10 | S/SO 13 | |
| Ieri h: 15:56 | Sereno | 32 | 24 | 62 | 1012 | 10 | SO 16.7 | |



